createdAt,value
2022-10-19T00:01:54.499Z,6.10
2022-10-19T00:04:20.899Z,7.18
2022-10-19T00:06:47.328Z,6.70
2022-10-19T00:09:17.112Z,6.50
2022-10-19T00:11:47.009Z,7.38
2022-10-19T00:14:16.650Z,6.28
2022-10-19T00:16:44.134Z,6.40
2022-10-19T00:19:16.803Z,6.38
2022-10-19T00:21:43.265Z,6.30
2022-10-19T00:24:09.910Z,6.20
2022-10-19T00:26:36.278Z,6.97
2022-10-19T00:29:03.296Z,7.15
2022-10-19T00:31:29.716Z,6.78
2022-10-19T00:33:57.254Z,6.75
2022-10-19T00:36:26.473Z,7.32
2022-10-19T00:38:53.627Z,6.45
2022-10-19T00:41:22.033Z,6.65
2022-10-19T00:43:53.095Z,6.95
2022-10-19T00:48:45.875Z,8.13
2022-10-19T00:51:12.518Z,7.88
2022-10-19T00:53:39.079Z,7.57
2022-10-19T00:56:10.021Z,6.97
2022-10-19T00:58:36.437Z,8.40
2022-10-19T01:01:04.741Z,7.88
2022-10-19T01:03:32.051Z,7.88
2022-10-19T01:05:59.471Z,7.40
2022-10-19T01:08:25.925Z,8.75
2022-10-19T01:11:08.731Z,9.43
2022-10-19T01:13:56.206Z,7.55
2022-10-19T01:16:36.610Z,8.40
2022-10-19T01:19:18.960Z,8.32
2022-10-19T01:21:50.079Z,9.55
2022-10-19T01:26:53.303Z,8.73
2022-10-19T01:29:53.708Z,11.60
2022-10-19T01:32:32.822Z,10.20
2022-10-19T01:35:12.306Z,10.18
2022-10-19T01:37:48.860Z,10.23
2022-10-19T01:40:21.452Z,9.30
2022-10-19T01:42:56.487Z,11.35
2022-10-19T01:45:27.623Z,10.43
2022-10-19T01:48:03.164Z,10.38
2022-10-19T01:50:39.407Z,10.27
2022-10-19T01:53:07.742Z,10.13
2022-10-19T01:55:34.283Z,9.40
2022-10-19T01:58:07.113Z,9.27
2022-10-19T02:00:37.592Z,9.45
2022-10-19T02:03:05.592Z,8.70
2022-10-19T02:05:33.111Z,9.63
2022-10-19T02:08:02.544Z,8.80
2022-10-19T02:10:29.875Z,9.02
2022-10-19T02:12:56.672Z,9.25
2022-10-19T02:15:25.211Z,10.10
2022-10-19T02:17:53.115Z,9.48
2022-10-19T02:20:20.253Z,10.18
2022-10-19T02:22:46.851Z,10.68
2022-10-19T02:25:13.446Z,11.25
2022-10-19T02:27:43.217Z,11.82
2022-10-19T02:30:14.694Z,11.20
2022-10-19T02:32:42.005Z,10.63
2022-10-19T02:35:08.863Z,9.48
2022-10-19T02:40:02.971Z,8.82
2022-10-19T02:42:34.949Z,8.43
2022-10-19T02:45:13.619Z,9.07
2022-10-19T02:47:45.259Z,9.20
2022-10-19T02:50:12.915Z,9.63
2022-10-19T02:52:40.122Z,10.18
2022-10-19T02:55:07.497Z,9.65
2022-10-19T02:57:34.172Z,10.30
2022-10-19T03:00:00.836Z,10.02
2022-10-19T03:02:27.313Z,11.65
2022-10-19T03:04:53.723Z,12.55
2022-10-19T03:07:21.436Z,13.80
2022-10-19T03:09:47.928Z,13.25
2022-10-19T03:12:14.899Z,12.95
2022-10-19T03:14:41.545Z,14.43
2022-10-19T03:17:08.360Z,15.32
2022-10-19T03:19:35.675Z,15.35
2022-10-19T03:22:02.112Z,16.08
2022-10-19T03:24:29.930Z,15.57
2022-10-19T03:26:56.678Z,16.08
2022-10-19T03:29:23.343Z,16.70
2022-10-19T03:31:49.765Z,16.77
2022-10-19T03:34:16.178Z,15.00
2022-10-19T03:36:42.675Z,15.10
2022-10-19T03:39:13.636Z,15.35
2022-10-19T03:41:40.078Z,15.63
2022-10-19T03:44:07.950Z,15.27
2022-10-19T03:46:35.433Z,14.93
2022-10-19T03:49:02.014Z,15.90
2022-10-19T03:51:29.746Z,15.40
2022-10-19T03:54:01.500Z,16.40
2022-10-19T03:56:29.058Z,15.95
2022-10-19T03:58:56.825Z,15.23
2022-10-19T04:01:31.991Z,15.35
2022-10-19T04:04:01.012Z,14.52
2022-10-19T04:06:30.141Z,14.15
2022-10-19T04:08:56.939Z,17.10
2022-10-19T04:11:25.882Z,12.98
2022-10-19T04:13:53.239Z,13.23
2022-10-19T04:16:20.497Z,13.45
2022-10-19T04:18:47.152Z,13.73
2022-10-19T04:21:23.865Z,14.68
2022-10-19T04:23:52.488Z,13.82
2022-10-19T04:26:19.798Z,14.20
2022-10-19T04:28:46.699Z,14.23
2022-10-19T04:31:13.600Z,13.50
2022-10-19T04:33:40.532Z,14.18
2022-10-19T04:36:10.486Z,13.68
2022-10-19T04:38:37.055Z,14.00
2022-10-19T04:41:09.400Z,13.15
2022-10-19T04:43:36.190Z,12.88
2022-10-19T04:46:05.464Z,13.55
2022-10-19T04:48:32.149Z,13.85
2022-10-19T04:50:58.532Z,13.50
2022-10-19T04:55:56.323Z,12.75
2022-10-19T04:58:22.895Z,12.90
2022-10-19T05:00:49.762Z,12.32
2022-10-19T05:03:17.181Z,12.55
2022-10-19T05:05:43.586Z,12.02
2022-10-19T05:08:10.488Z,14.15
2022-10-19T05:10:37.831Z,12.13
2022-10-19T05:13:04.739Z,12.68
2022-10-19T05:15:31.287Z,12.52
2022-10-19T05:17:57.869Z,11.32
2022-10-19T05:20:24.518Z,12.48
2022-10-19T05:22:51.241Z,13.07
2022-10-19T05:25:17.982Z,12.82
2022-10-19T05:27:44.390Z,12.70
2022-10-19T05:30:10.910Z,12.57
2022-10-19T05:32:37.267Z,12.05
2022-10-19T05:35:03.826Z,14.00
2022-10-19T05:37:30.235Z,13.20
2022-10-19T05:39:56.641Z,12.43
2022-10-19T05:42:23.095Z,13.27
2022-10-19T05:44:49.550Z,12.68
2022-10-19T05:47:16.141Z,12.10
2022-10-19T05:49:42.532Z,13.30
2022-10-19T05:52:08.925Z,12.43
2022-10-19T05:54:36.803Z,13.13
2022-10-19T05:57:03.508Z,12.45
2022-10-19T05:59:29.965Z,12.10
2022-10-19T06:01:56.513Z,12.00
2022-10-19T06:04:22.944Z,12.75
2022-10-19T06:06:49.369Z,12.80
2022-10-19T06:09:15.789Z,12.88
2022-10-19T06:11:42.968Z,12.77
2022-10-19T06:14:12.924Z,12.48
2022-10-19T06:16:39.660Z,14.32
2022-10-19T06:19:06.137Z,15.23
2022-10-19T06:21:33.362Z,18.83
2022-10-19T06:24:02.745Z,19.08
2022-10-19T06:26:30.401Z,17.65
2022-10-19T06:29:00.239Z,18.17
2022-10-19T06:31:31.709Z,19.25
2022-10-19T06:33:58.482Z,20.27
2022-10-19T06:36:27.016Z,17.95
2022-10-19T06:38:53.660Z,20.23
2022-10-19T06:41:20.686Z,19.30
2022-10-19T06:43:51.122Z,20.17
2022-10-19T06:46:20.490Z,21.67
2022-10-19T06:48:55.100Z,21.08
2022-10-19T06:51:21.944Z,22.75
2022-10-19T06:53:50.590Z,22.67
2022-10-19T06:56:24.404Z,22.80
2022-10-19T06:58:50.813Z,21.63
2022-10-19T07:01:17.329Z,20.17
2022-10-19T07:03:43.840Z,20.40
2022-10-19T07:06:11.805Z,19.02
2022-10-19T07:08:40.327Z,20.33
2022-10-19T07:11:09.169Z,19.65
2022-10-19T07:13:35.792Z,18.42
2022-10-19T07:16:06.916Z,19.65
2022-10-19T07:18:35.372Z,19.40
2022-10-19T07:21:03.867Z,22.40
2022-10-19T07:23:31.631Z,21.67
2022-10-19T07:26:02.149Z,23.10
2022-10-19T07:28:29.851Z,25.00
2022-10-19T07:30:56.393Z,26.10
2022-10-19T07:33:23.113Z,27.90
2022-10-19T07:35:49.628Z,27.67
2022-10-19T07:38:16.021Z,26.95
2022-10-19T07:40:44.922Z,28.90
2022-10-19T07:43:13.773Z,29.35
2022-10-19T07:45:40.145Z,30.70
2022-10-19T07:48:06.816Z,30.98
2022-10-19T07:50:33.300Z,31.95
2022-10-19T07:52:59.685Z,32.33
2022-10-19T07:55:26.091Z,31.85
2022-10-19T07:57:52.503Z,32.30
2022-10-19T08:00:18.990Z,35.33
2022-10-19T08:02:57.748Z,33.65
2022-10-19T08:05:26.517Z,32.58
2022-10-19T08:07:52.990Z,34.75
2022-10-19T08:10:19.365Z,33.30
2022-10-19T08:12:45.776Z,33.55
2022-10-19T08:15:12.157Z,34.47
2022-10-19T08:17:39.671Z,34.70
2022-10-19T08:20:06.841Z,33.50
2022-10-19T08:22:34.060Z,33.50
2022-10-19T08:25:00.783Z,35.67
2022-10-19T08:27:27.218Z,34.70
2022-10-19T08:29:53.671Z,32.30
2022-10-19T08:32:20.243Z,28.73
2022-10-19T08:34:46.669Z,30.92
2022-10-19T08:37:25.796Z,34.13
2022-10-19T08:39:59.451Z,29.83
2022-10-19T08:42:43.578Z,27.65
2022-10-19T08:45:25.860Z,27.55
2022-10-19T08:48:00.928Z,25.08
2022-10-19T08:50:38.623Z,23.48
2022-10-19T08:53:08.376Z,20.95
2022-10-19T08:55:51.923Z,18.98
2022-10-19T08:58:21.294Z,17.65
2022-10-19T09:01:07.248Z,17.40
2022-10-19T09:03:55.320Z,15.88
2022-10-19T09:06:31.650Z,15.93
2022-10-19T09:08:58.552Z,17.10
2022-10-19T09:11:28.524Z,15.00
2022-10-19T09:14:06.170Z,15.02
2022-10-19T09:16:34.690Z,14.95
2022-10-19T09:19:01.135Z,13.38
2022-10-19T09:21:47.334Z,13.77
2022-10-19T09:24:21.717Z,10.80
2022-10-19T09:26:53.583Z,10.75
2022-10-19T09:29:37.910Z,10.90
2022-10-19T09:32:19.692Z,10.25
2022-10-19T09:34:58.854Z,10.15
2022-10-19T09:37:26.739Z,12.13
2022-10-19T09:39:55.591Z,9.85
2022-10-19T09:42:32.964Z,8.60
2022-10-19T09:45:07.339Z,8.43
2022-10-19T09:47:40.962Z,9.55
2022-10-19T09:50:23.576Z,8.77
2022-10-19T09:52:52.327Z,7.95
2022-10-19T09:55:44.206Z,8.98
2022-10-19T09:58:13.688Z,8.52
2022-10-19T10:00:42.879Z,7.38
2022-10-19T10:03:26.677Z,7.35
2022-10-19T10:05:53.683Z,7.68
2022-10-19T10:08:22.164Z,8.07
2022-10-19T10:11:14.170Z,7.60
2022-10-19T10:13:42.939Z,8.52
2022-10-19T10:16:13.728Z,7.90
2022-10-19T10:18:59.213Z,7.03
2022-10-19T10:21:31.958Z,8.45
2022-10-19T10:24:00.820Z,7.63
2022-10-19T10:26:27.787Z,7.47
2022-10-19T10:28:57.807Z,7.43
2022-10-19T10:31:28.930Z,7.32
2022-10-19T10:34:11.163Z,6.05
2022-10-19T10:36:51.391Z,5.45
2022-10-19T10:39:17.900Z,5.70
2022-10-19T10:41:45.102Z,5.00
2022-10-19T10:44:20.126Z,4.40
2022-10-19T10:46:55.896Z,3.83
2022-10-19T10:49:34.171Z,3.90
2022-10-19T10:52:05.305Z,3.95
2022-10-19T10:54:33.089Z,3.75
2022-10-19T10:57:12.790Z,3.90
2022-10-19T11:00:01.168Z,3.80
2022-10-19T11:02:41.353Z,4.18
2022-10-19T11:05:31.386Z,4.40
2022-10-19T11:08:12.532Z,3.97
2022-10-19T11:11:00.653Z,4.53
2022-10-19T11:13:39.074Z,3.40
2022-10-19T11:16:24.797Z,3.58
2022-10-19T11:19:19.035Z,3.80
2022-10-19T11:21:51.710Z,3.50
2022-10-19T11:24:45.102Z,3.45
2022-10-19T11:27:28.653Z,3.50
2022-10-19T11:30:09.340Z,3.88
2022-10-19T11:33:09.755Z,3.72
2022-10-19T11:35:52.741Z,4.50
2022-10-19T11:38:40.348Z,3.75
2022-10-19T11:41:18.565Z,4.50
2022-10-19T11:43:57.560Z,3.60
2022-10-19T11:46:42.971Z,3.63
2022-10-19T11:49:15.956Z,4.20
2022-10-19T11:51:57.540Z,3.47
2022-10-19T11:54:27.117Z,4.18
2022-10-19T11:57:04.737Z,3.20
2022-10-19T11:59:48.945Z,3.70
2022-10-19T12:02:47.596Z,4.03
2022-10-19T12:05:37.455Z,3.78
2022-10-19T12:08:22.560Z,4.40
2022-10-19T12:11:20.656Z,3.75
2022-10-19T12:14:14.106Z,3.45
2022-10-19T12:16:43.021Z,4.20
2022-10-19T12:19:17.706Z,3.60
2022-10-19T12:21:44.743Z,3.40
2022-10-19T12:24:15.308Z,3.85
2022-10-19T12:26:42.446Z,4.07
2022-10-19T12:29:32.336Z,3.92
2022-10-19T12:31:59.943Z,3.65
2022-10-19T12:34:35.509Z,4.20
2022-10-19T12:37:25.905Z,4.18
2022-10-19T12:40:00.754Z,4.10
2022-10-19T12:42:51.646Z,3.60
2022-10-19T12:45:36.730Z,4.25
2022-10-19T12:48:09.228Z,4.65
2022-10-19T12:50:50.825Z,4.43
2022-10-19T12:53:39.302Z,3.67
2022-10-19T12:56:17.609Z,4.18
2022-10-19T12:58:46.716Z,3.80
2022-10-19T13:01:35.634Z,4.40
2022-10-19T13:04:20.602Z,3.78
2022-10-19T13:06:51.622Z,4.18
2022-10-19T13:09:30.764Z,4.70
2022-10-19T13:12:19.479Z,4.30
2022-10-19T13:14:59.875Z,3.83
2022-10-19T13:17:41.058Z,3.40
2022-10-19T13:20:13.209Z,3.75
2022-10-19T13:22:40.507Z,3.58
2022-10-19T13:25:16.072Z,4.15
2022-10-19T13:27:43.588Z,4.03
2022-10-19T13:30:44.176Z,3.85
2022-10-19T13:33:35.291Z,4.43
2022-10-19T13:36:02.421Z,4.25
2022-10-19T13:38:33.106Z,4.20
2022-10-19T13:41:04.878Z,4.55
2022-10-19T13:43:55.202Z,4.78
2022-10-19T13:46:30.616Z,3.80
2022-10-19T13:49:26.695Z,3.83
2022-10-19T13:52:03.699Z,4.65
2022-10-19T13:54:54.845Z,4.50
2022-10-19T14:00:18.094Z,4.82
2022-10-19T14:03:04.396Z,4.10
2022-10-19T14:08:28.825Z,4.93
2022-10-19T14:11:04.075Z,3.97
2022-10-19T14:13:30.536Z,4.82
2022-10-19T14:15:58.556Z,5.07
2022-10-19T14:18:29.540Z,5.82
2022-10-19T14:23:39.714Z,5.20
2022-10-19T14:26:20.510Z,5.43
2022-10-19T14:28:52.028Z,4.63
2022-10-19T14:31:22.313Z,4.57
2022-10-19T14:34:00.382Z,5.25
2022-10-19T14:36:35.191Z,4.20
2022-10-19T14:39:02.018Z,4.25
2022-10-19T14:41:28.438Z,4.57
2022-10-19T14:43:56.396Z,4.38
2022-10-19T14:46:33.897Z,4.97
2022-10-19T14:49:03.076Z,4.78
2022-10-19T14:51:43.154Z,5.18
2022-10-19T14:54:15.296Z,4.50
2022-10-19T14:56:52.394Z,4.20
2022-10-19T14:59:30.870Z,4.57
2022-10-19T15:02:02.638Z,4.15
2022-10-19T15:04:32.002Z,4.53
2022-10-19T15:07:00.118Z,4.60
2022-10-19T15:09:37.326Z,4.88
2022-10-19T15:12:17.081Z,4.25
2022-10-19T15:14:44.107Z,4.90
2022-10-19T15:17:31.199Z,4.80
2022-10-19T15:20:01.072Z,4.10
2022-10-19T15:22:30.950Z,4.55
2022-10-19T15:25:00.387Z,3.85
2022-10-19T15:27:37.939Z,4.15
2022-10-19T15:30:20.993Z,5.60
2022-10-19T15:32:51.337Z,4.10
2022-10-19T15:35:38.653Z,4.50
2022-10-19T15:38:14.533Z,4.50
2022-10-19T15:40:42.981Z,5.22
2022-10-19T15:43:34.208Z,4.38
2022-10-19T15:46:13.423Z,4.03
2022-10-19T15:48:49.992Z,4.38
2022-10-19T15:51:25.016Z,4.55
2022-10-19T15:53:55.993Z,4.90
2022-10-19T15:58:50.379Z,5.57
2022-10-19T16:01:22.482Z,5.45
2022-10-19T16:03:49.249Z,6.15
2022-10-19T16:06:17.215Z,4.97
2022-10-19T16:08:47.096Z,5.40
2022-10-19T16:11:18.771Z,4.55
2022-10-19T16:13:45.606Z,5.10
2022-10-19T16:16:32.386Z,6.38
2022-10-19T16:18:59.426Z,7.57
2022-10-19T16:21:31.806Z,4.97
2022-10-19T16:23:58.393Z,5.60
2022-10-19T16:26:26.191Z,5.32
2022-10-19T16:28:54.406Z,4.53
2022-10-19T16:31:21.096Z,4.55
2022-10-19T16:33:47.535Z,4.40
2022-10-19T16:36:14.043Z,5.18
2022-10-19T16:38:40.479Z,4.85
2022-10-19T16:41:09.426Z,4.63
2022-10-19T16:43:36.358Z,4.57
2022-10-19T16:46:04.053Z,4.22
2022-10-19T16:48:31.056Z,4.30
2022-10-19T16:51:06.681Z,4.60
2022-10-19T16:53:34.148Z,4.72
2022-10-19T16:56:05.919Z,4.95
2022-10-19T16:58:32.347Z,5.75
2022-10-19T17:01:01.681Z,5.72
2022-10-19T17:03:28.663Z,5.03
2022-10-19T17:05:55.075Z,5.05
2022-10-19T17:08:23.893Z,5.53
2022-10-19T17:10:52.807Z,5.40
2022-10-19T17:13:19.732Z,5.38
2022-10-19T17:15:46.107Z,4.93
2022-10-19T17:18:12.576Z,5.13
2022-10-19T17:20:39.095Z,5.22
2022-10-19T17:23:05.474Z,5.80
2022-10-19T17:25:31.881Z,5.65
2022-10-19T17:27:58.277Z,4.88
2022-10-19T17:30:24.752Z,5.43
2022-10-19T17:32:51.124Z,6.07
2022-10-19T17:35:17.525Z,4.97
2022-10-19T17:37:43.898Z,5.50
2022-10-19T17:40:10.661Z,5.72
2022-10-19T17:42:37.100Z,5.38
2022-10-19T17:45:04.710Z,6.22
2022-10-19T17:47:31.255Z,5.68
2022-10-19T17:49:57.716Z,6.18
2022-10-19T17:52:24.096Z,6.20
2022-10-19T17:55:11.308Z,7.53
2022-10-19T17:57:37.325Z,6.20
2022-10-19T18:00:06.984Z,5.88
2022-10-19T18:02:33.880Z,6.35
2022-10-19T18:05:00.503Z,5.85
2022-10-19T18:07:26.913Z,6.07
2022-10-19T18:09:53.348Z,6.95
2022-10-19T18:12:19.776Z,6.47
2022-10-19T18:14:46.139Z,7.28
2022-10-19T18:17:12.520Z,7.10
2022-10-19T18:19:38.932Z,6.35
2022-10-19T18:22:05.334Z,6.72
2022-10-19T18:24:32.849Z,7.30
2022-10-19T18:26:59.679Z,6.25
2022-10-19T18:29:26.668Z,6.90
2022-10-19T18:31:53.316Z,7.38
2022-10-19T18:34:22.618Z,7.90
2022-10-19T18:36:49.936Z,7.60
2022-10-19T18:39:17.030Z,6.30
2022-10-19T18:41:45.826Z,6.32
2022-10-19T18:44:13.131Z,7.00
2022-10-19T18:46:39.580Z,6.70
2022-10-19T18:49:08.298Z,6.78
2022-10-19T18:51:35.293Z,6.97
2022-10-19T18:54:01.807Z,7.40
2022-10-19T18:56:29.377Z,7.63
2022-10-19T18:58:56.384Z,6.85
2022-10-19T19:01:27.562Z,6.80
2022-10-19T19:03:56.826Z,7.43
2022-10-19T19:06:29.343Z,6.50
2022-10-19T19:08:56.911Z,6.72
2022-10-19T19:11:29.655Z,6.72
2022-10-19T19:14:03.783Z,7.32
2022-10-19T19:16:33.575Z,7.15
2022-10-19T19:19:00.258Z,7.75
2022-10-19T19:21:28.787Z,6.97
2022-10-19T19:23:56.202Z,7.72
2022-10-19T19:26:26.207Z,7.25
2022-10-19T19:28:52.579Z,6.90
2022-10-19T19:31:19.224Z,8.65
2022-10-19T19:33:47.549Z,8.65
2022-10-19T19:36:15.397Z,7.18
2022-10-19T19:38:42.220Z,7.75
2022-10-19T19:41:11.412Z,6.50
2022-10-19T19:43:38.544Z,6.20
2022-10-19T19:46:09.392Z,6.10
2022-10-19T19:51:02.938Z,7.03
2022-10-19T19:53:29.434Z,7.28
2022-10-19T19:55:55.821Z,7.60
2022-10-19T19:58:22.189Z,8.40
2022-10-19T20:00:48.663Z,7.25
2022-10-19T20:03:15.779Z,7.18
2022-10-19T20:05:42.224Z,7.63
2022-10-19T20:08:08.909Z,7.07
2022-10-19T20:10:42.340Z,7.47
2022-10-19T20:13:09.098Z,7.85
2022-10-19T20:15:38.972Z,7.55
2022-10-19T20:18:05.951Z,8.05
2022-10-19T20:20:32.340Z,7.35
2022-10-19T20:22:58.737Z,7.30
2022-10-19T20:25:25.240Z,7.30
2022-10-19T20:27:51.685Z,7.95
2022-10-19T20:30:18.151Z,8.27
2022-10-19T20:32:44.527Z,8.73
2022-10-19T20:35:11.101Z,7.88
2022-10-19T20:37:37.752Z,8.30
2022-10-19T20:40:08.559Z,8.48
2022-10-19T20:42:35.705Z,9.65
2022-10-19T20:45:02.735Z,9.15
2022-10-19T20:47:29.426Z,8.85
2022-10-19T20:49:55.872Z,9.43
2022-10-19T20:52:22.314Z,9.00
2022-10-19T20:54:49.224Z,9.35
2022-10-19T20:57:15.956Z,9.20
2022-10-19T20:59:43.780Z,9.27
2022-10-19T21:02:11.026Z,9.32
2022-10-19T21:04:37.851Z,9.95
2022-10-19T21:07:04.907Z,9.48
2022-10-19T21:09:31.496Z,9.38
2022-10-19T21:11:58.119Z,10.25
2022-10-19T21:14:28.418Z,10.80
2022-10-19T21:16:59.113Z,10.60
2022-10-19T21:19:27.003Z,10.90
2022-10-19T21:21:57.120Z,10.93
2022-10-19T21:24:26.102Z,11.70
2022-10-19T21:26:52.847Z,10.77
2022-10-19T21:29:19.920Z,11.82
2022-10-19T21:31:49.215Z,10.38
2022-10-19T21:34:21.827Z,10.63
2022-10-19T21:36:48.498Z,11.25
2022-10-19T21:39:15.079Z,11.75
2022-10-19T21:41:41.447Z,10.23
2022-10-19T21:44:07.840Z,11.00
2022-10-19T21:46:34.263Z,11.00
2022-10-19T21:49:00.723Z,10.73
2022-10-19T21:51:36.084Z,11.40
2022-10-19T21:54:04.261Z,11.35
2022-10-19T21:56:30.903Z,12.05
2022-10-19T21:58:58.053Z,12.00
2022-10-19T22:01:26.899Z,12.88
2022-10-19T22:04:01.698Z,10.65
2022-10-19T22:06:29.748Z,10.85
2022-10-19T22:08:57.459Z,10.65
2022-10-19T22:11:24.467Z,11.80
2022-10-19T22:13:58.984Z,11.63
2022-10-19T22:16:26.352Z,11.57
2022-10-19T22:18:52.882Z,11.98
2022-10-19T22:21:22.940Z,11.05
2022-10-19T22:23:54.272Z,10.67
2022-10-19T22:26:23.674Z,11.18
2022-10-19T22:28:50.153Z,11.40
2022-10-19T22:31:16.610Z,11.48
2022-10-19T22:33:42.992Z,12.48
2022-10-19T22:36:10.969Z,11.75
2022-10-19T22:38:37.685Z,11.23
2022-10-19T22:41:04.074Z,12.15
2022-10-19T22:43:30.461Z,11.48
2022-10-19T22:45:57.040Z,11.13
2022-10-19T22:48:23.427Z,12.27
2022-10-19T22:50:53.061Z,12.20
2022-10-19T22:53:21.342Z,11.77
2022-10-19T22:55:47.910Z,11.73
2022-10-19T22:58:14.667Z,11.00
2022-10-19T23:00:41.181Z,10.85
2022-10-19T23:03:07.728Z,11.32
2022-10-19T23:05:34.113Z,11.55
2022-10-19T23:08:00.587Z,12.55
2022-10-19T23:10:27.052Z,13.23
2022-10-19T23:12:53.870Z,12.68
2022-10-19T23:15:21.268Z,13.65
2022-10-19T23:17:47.817Z,12.23
2022-10-19T23:20:14.518Z,12.70
2022-10-19T23:22:40.948Z,13.15
2022-10-19T23:25:08.423Z,13.73
2022-10-19T23:27:35.221Z,12.38
2022-10-19T23:30:03.765Z,11.68
2022-10-19T23:32:30.310Z,12.40
2022-10-19T23:34:56.795Z,11.65
2022-10-19T23:37:23.251Z,13.27
2022-10-19T23:39:49.682Z,11.85
2022-10-19T23:42:16.065Z,13.60
2022-10-19T23:44:42.513Z,12.90
2022-10-19T23:47:08.914Z,13.40
2022-10-19T23:49:35.282Z,12.45
2022-10-19T23:52:01.953Z,13.52
2022-10-19T23:54:28.372Z,13.43
2022-10-19T23:56:54.765Z,13.98
2022-10-19T23:59:21.247Z,13.05
